Koyo Maru — JI3710 — position and weather

sailwx.info

Track history (hours):
 
Tides and Currents Weather Stations Pressure Air Temp Water Temp Dewpoint Dewpoint Depression Visibility Wind Speed Wind Dir Waves Ship Positions

Koyo Maru

Last reported at 2016-Dec-06 12:21 UTC. Time now 2016-Dec-11 13:47 UTC.
Position N 34°07' E 134°59'.

Length 125 m; draft 6 m.

Type: Cargo ship. MMSI: 431401953.

Date/timePositionNaut miles runAvg speedWind from/ knotsBaromVisibWave heightAir tempDewpointWater temp
2016-Dec-06 12:21N 34°07' E 134°59'1518.6
2016-Dec-06 11:31N 34°23' E 135°02'1818.9
2016-Dec-06 10:33N 34°34' E 135°19'6 5.6
2016-Dec-06 09:30N 34°35' E 135°26'0 0.0
2016-Dec-06 08:30N 34°35' E 135°26'0 0.0
2016-Dec-06 07:30N 34°35' E 135°26'0 0.0
2016-Dec-06 06:30N 34°35' E 135°26'0 0.0
2016-Dec-06 05:18N 34°35' E 135°26'0 0.0
2016-Dec-06 04:30N 34°35' E 135°26'0 0.0
2016-Dec-06 03:24N 34°35' E 135°26'0 0.0
2016-Dec-06 02:30N 34°35' E 135°26'0 0.0
2016-Dec-06 01:24N 34°35' E 135°26'0 0.0
2016-Dec-06 00:24N 34°35' E 135°26'0 0.0
2016-Dec-05 23:18N 34°35' E 135°26'0 0.0
2016-Dec-05 22:34N 34°35' E 135°26'9 8.8
2016-Dec-05 21:33N 34°35' E 135°15'  
2016-Nov-30 14:22N 34°36' E 134°56'1012.6
2016-Nov-30 13:33N 34°29' E 135°04'1918.1
2016-Nov-30 12:31N 34°11' E 134°60'4 0.1
2016-Nov-29 10:27N 34°07' E 134°59'1617.5
2016-Nov-29 09:33N 34°23' E 135°02'1918.5
2016-Nov-29 08:33N 34°35' E 135°19'5 4.8
2016-Nov-29 07:29N 34°35' E 135°26'0 0.0
2016-Nov-29 06:17N 34°35' E 135°26'0 0.0
2016-Nov-29 05:29N 34°35' E 135°26'0 0.0
2016-Nov-29 04:17N 34°35' E 135°26'0 0.0
2016-Nov-29 03:23N 34°35' E 135°26'0 0.0
2016-Nov-29 02:29N 34°35' E 135°26'0 0.0
2016-Nov-29 01:29N 34°35' E 135°26'0 0.0
2016-Nov-29 00:29N 34°35' E 135°26'0 0.0
2016-Nov-28 23:22N 34°35' E 135°26'0 0.0
2016-Nov-28 22:33N 34°35' E 135°26'9 8.9
2016-Nov-28 21:33N 34°35' E 135°15'  
Track history (hours):
 
Tides and Currents Weather Stations Pressure Air Temp Water Temp Dewpoint Dewpoint Depression Visibility Wind Speed Wind Dir Waves Ship Positions

Koyo Maru

Last reported at 2016-Dec-06 12:21 UTC. Time now 2016-Dec-11 13:47 UTC.
Position N 34°07' E 134°59'.

Length 125 m; draft 6 m.

Type: Cargo ship. MMSI: 431401953.

Date/timePositionNaut miles runAvg speedWind from/ knotsBaromVisibWave heightAir tempDewpointWater temp
2016-Dec-06 12:21N 34°07' E 134°59'1518.6
2016-Dec-06 11:31N 34°23' E 135°02'1818.9
2016-Dec-06 10:33N 34°34' E 135°19'6 5.6
2016-Dec-06 09:30N 34°35' E 135°26'0 0.0
2016-Dec-06 08:30N 34°35' E 135°26'0 0.0
2016-Dec-06 07:30N 34°35' E 135°26'0 0.0
2016-Dec-06 06:30N 34°35' E 135°26'0 0.0
2016-Dec-06 05:18N 34°35' E 135°26'0 0.0
2016-Dec-06 04:30N 34°35' E 135°26'0 0.0
2016-Dec-06 03:24N 34°35' E 135°26'0 0.0
2016-Dec-06 02:30N 34°35' E 135°26'0 0.0
2016-Dec-06 01:24N 34°35' E 135°26'0 0.0
2016-Dec-06 00:24N 34°35' E 135°26'0 0.0
2016-Dec-05 23:18N 34°35' E 135°26'0 0.0
2016-Dec-05 22:34N 34°35' E 135°26'9 8.8
2016-Dec-05 21:33N 34°35' E 135°15'  
2016-Nov-30 14:22N 34°36' E 134°56'1012.6
2016-Nov-30 13:33N 34°29' E 135°04'1918.1
2016-Nov-30 12:31N 34°11' E 134°60'4 0.1
2016-Nov-29 10:27N 34°07' E 134°59'1617.5
2016-Nov-29 09:33N 34°23' E 135°02'1918.5
2016-Nov-29 08:33N 34°35' E 135°19'5 4.8
2016-Nov-29 07:29N 34°35' E 135°26'0 0.0
2016-Nov-29 06:17N 34°35' E 135°26'0 0.0
2016-Nov-29 05:29N 34°35' E 135°26'0 0.0
2016-Nov-29 04:17N 34°35' E 135°26'0 0.0
2016-Nov-29 03:23N 34°35' E 135°26'0 0.0
2016-Nov-29 02:29N 34°35' E 135°26'0 0.0
2016-Nov-29 01:29N 34°35' E 135°26'0 0.0
2016-Nov-29 00:29N 34°35' E 135°26'0 0.0
2016-Nov-28 23:22N 34°35' E 135°26'0 0.0
2016-Nov-28 22:33N 34°35' E 135°26'9 8.9
2016-Nov-28 21:33N 34°35' E 135°15'  

Dump ship's entire track history